sensor_id;sensor_type;location;lat;lon;timestamp;P1;durP1;ratioP1;P2;durP2;ratioP2
70183;SDS011;57554;51.546;6.776;2022-08-06T00:00:06;6.35;;;1.83;;
70183;SDS011;57554;51.546;6.776;2022-08-06T00:02:32;4.60;;;2.05;;
70183;SDS011;57554;51.546;6.776;2022-08-06T00:04:59;6.07;;;2.17;;
70183;SDS011;57554;51.546;6.776;2022-08-06T00:07:26;5.72;;;1.55;;
70183;SDS011;57554;51.546;6.776;2022-08-06T00:09:52;5.95;;;1.70;;
70183;SDS011;57554;51.546;6.776;2022-08-06T00:12:18;6.05;;;1.92;;
70183;SDS011;57554;51.546;6.776;2022-08-06T00:14:43;6.60;;;1.73;;
70183;SDS011;57554;51.546;6.776;2022-08-06T00:17:09;5.05;;;1.80;;
70183;SDS011;57554;51.546;6.776;2022-08-06T00:19:35;5.15;;;1.65;;
70183;SDS011;57554;51.546;6.776;2022-08-06T00:22:00;6.72;;;1.95;;
70183;SDS011;57554;51.546;6.776;2022-08-06T00:24:26;4.85;;;1.80;;
70183;SDS011;57554;51.546;6.776;2022-08-06T00:26:52;5.47;;;1.80;;
70183;SDS011;57554;51.546;6.776;2022-08-06T00:29:17;7.55;;;2.20;;
70183;SDS011;57554;51.546;6.776;2022-08-06T00:31:43;5.43;;;1.73;;
70183;SDS011;57554;51.546;6.776;2022-08-06T00:34:09;6.43;;;1.83;;
70183;SDS011;57554;51.546;6.776;2022-08-06T00:36:34;6.43;;;1.92;;
70183;SDS011;57554;51.546;6.776;2022-08-06T00:39:01;6.03;;;1.98;;
70183;SDS011;57554;51.546;6.776;2022-08-06T00:41:29;6.03;;;2.10;;
70183;SDS011;57554;51.546;6.776;2022-08-06T00:43:55;5.70;;;2.05;;
70183;SDS011;57554;51.546;6.776;2022-08-06T00:46:22;9.27;;;2.13;;
70183;SDS011;57554;51.546;6.776;2022-08-06T00:48:48;7.30;;;2.00;;
70183;SDS011;57554;51.546;6.776;2022-08-06T00:51:14;6.90;;;1.90;;
70183;SDS011;57554;51.546;6.776;2022-08-06T00:53:40;5.32;;;2.15;;
70183;SDS011;57554;51.546;6.776;2022-08-06T00:56:05;7.85;;;2.10;;
70183;SDS011;57554;51.546;6.776;2022-08-06T00:58:31;6.50;;;2.00;;
70183;SDS011;57554;51.546;6.776;2022-08-06T01:00:57;4.78;;;1.70;;
70183;SDS011;57554;51.546;6.776;2022-08-06T01:03:22;6.35;;;2.10;;
70183;SDS011;57554;51.546;6.776;2022-08-06T01:05:48;6.38;;;1.70;;
70183;SDS011;57554;51.546;6.776;2022-08-06T01:08:14;5.20;;;1.77;;
70183;SDS011;57554;51.546;6.776;2022-08-06T01:10:40;5.45;;;2.03;;
70183;SDS011;57554;51.546;6.776;2022-08-06T01:13:05;4.82;;;1.77;;
70183;SDS011;57554;51.546;6.776;2022-08-06T01:15:32;5.95;;;2.03;;
70183;SDS011;57554;51.546;6.776;2022-08-06T01:18:00;5.15;;;1.63;;
70183;SDS011;57554;51.546;6.776;2022-08-06T01:20:39;6.45;;;1.95;;
70183;SDS011;57554;51.546;6.776;2022-08-06T01:26:15;5.28;;;1.80;;
70183;SDS011;57554;51.546;6.776;2022-08-06T01:34:27;6.88;;;2.00;;
70183;SDS011;57554;51.546;6.776;2022-08-06T01:39:38;4.60;;;1.70;;
70183;SDS011;57554;51.546;6.776;2022-08-06T01:42:07;5.75;;;2.08;;
70183;SDS011;57554;51.546;6.776;2022-08-06T01:44:36;5.97;;;2.00;;
70183;SDS011;57554;51.546;6.776;2022-08-06T01:47:06;4.50;;;1.83;;
70183;SDS011;57554;51.546;6.776;2022-08-06T01:49:34;6.25;;;1.95;;
70183;SDS011;57554;51.546;6.776;2022-08-06T01:52:02;6.03;;;2.00;;
70183;SDS011;57554;51.546;6.776;2022-08-06T01:54:30;7.18;;;1.83;;
70183;SDS011;57554;51.546;6.776;2022-08-06T01:57:03;6.40;;;2.00;;
70183;SDS011;57554;51.546;6.776;2022-08-06T01:59:33;6.90;;;2.00;;
70183;SDS011;57554;51.546;6.776;2022-08-06T02:02:02;6.57;;;2.10;;
70183;SDS011;57554;51.546;6.776;2022-08-06T02:04:31;5.22;;;2.22;;
70183;SDS011;57554;51.546;6.776;2022-08-06T02:07:01;7.45;;;2.15;;
70183;SDS011;57554;51.546;6.776;2022-08-06T02:09:30;7.75;;;2.00;;
70183;SDS011;57554;51.546;6.776;2022-08-06T02:12:08;6.60;;;2.15;;
70183;SDS011;57554;51.546;6.776;2022-08-06T02:14:40;7.40;;;2.28;;
70183;SDS011;57554;51.546;6.776;2022-08-06T02:17:11;7.18;;;2.30;;
70183;SDS011;57554;51.546;6.776;2022-08-06T02:19:40;4.35;;;1.98;;
70183;SDS011;57554;51.546;6.776;2022-08-06T02:22:11;4.57;;;2.05;;
70183;SDS011;57554;51.546;6.776;2022-08-06T02:24:38;5.80;;;2.10;;
70183;SDS011;57554;51.546;6.776;2022-08-06T02:27:04;6.25;;;2.10;;
70183;SDS011;57554;51.546;6.776;2022-08-06T02:29:32;6.93;;;2.00;;
70183;SDS011;57554;51.546;6.776;2022-08-06T02:31:58;7.00;;;2.10;;
70183;SDS011;57554;51.546;6.776;2022-08-06T02:34:24;7.07;;;1.80;;
70183;SDS011;57554;51.546;6.776;2022-08-06T02:36:52;9.48;;;2.50;;
70183;SDS011;57554;51.546;6.776;2022-08-06T02:39:33;5.50;;;2.03;;
70183;SDS011;57554;51.546;6.776;2022-08-06T02:42:08;9.32;;;2.22;;
70183;SDS011;57554;51.546;6.776;2022-08-06T02:47:38;5.88;;;2.20;;
70183;SDS011;57554;51.546;6.776;2022-08-06T02:50:15;7.13;;;2.10;;
70183;SDS011;57554;51.546;6.776;2022-08-06T02:52:49;5.43;;;2.05;;
70183;SDS011;57554;51.546;6.776;2022-08-06T02:55:32;5.80;;;2.05;;
70183;SDS011;57554;51.546;6.776;2022-08-06T02:58:05;5.80;;;2.00;;
70183;SDS011;57554;51.546;6.776;2022-08-06T03:03:05;7.10;;;2.10;;
70183;SDS011;57554;51.546;6.776;2022-08-06T03:05:32;7.45;;;2.33;;
70183;SDS011;57554;51.546;6.776;2022-08-06T03:07:59;8.98;;;2.30;;
70183;SDS011;57554;51.546;6.776;2022-08-06T03:10:27;5.05;;;2.00;;
70183;SDS011;57554;51.546;6.776;2022-08-06T03:12:54;5.63;;;2.30;;
70183;SDS011;57554;51.546;6.776;2022-08-06T03:15:22;7.55;;;2.47;;
70183;SDS011;57554;51.546;6.776;2022-08-06T03:17:49;4.57;;;2.13;;
70183;SDS011;57554;51.546;6.776;2022-08-06T03:20:20;4.97;;;2.13;;
70183;SDS011;57554;51.546;6.776;2022-08-06T03:22:48;6.60;;;2.20;;
70183;SDS011;57554;51.546;6.776;2022-08-06T03:25:17;6.35;;;2.25;;
70183;SDS011;57554;51.546;6.776;2022-08-06T03:27:44;6.35;;;2.75;;
70183;SDS011;57554;51.546;6.776;2022-08-06T03:30:13;6.50;;;2.30;;
70183;SDS011;57554;51.546;6.776;2022-08-06T03:32:40;7.90;;;2.60;;
70183;SDS011;57554;51.546;6.776;2022-08-06T03:35:06;8.32;;;2.42;;
70183;SDS011;57554;51.546;6.776;2022-08-06T03:37:33;9.65;;;2.83;;
70183;SDS011;57554;51.546;6.776;2022-08-06T03:39:59;4.95;;;2.30;;
70183;SDS011;57554;51.546;6.776;2022-08-06T03:42:27;5.45;;;2.30;;
70183;SDS011;57554;51.546;6.776;2022-08-06T03:44:52;6.57;;;2.10;;
70183;SDS011;57554;51.546;6.776;2022-08-06T03:47:22;4.70;;;1.73;;
70183;SDS011;57554;51.546;6.776;2022-08-06T03:49:52;4.47;;;1.83;;
70183;SDS011;57554;51.546;6.776;2022-08-06T03:52:23;7.55;;;1.90;;
70183;SDS011;57554;51.546;6.776;2022-08-06T03:57:21;6.45;;;2.08;;
70183;SDS011;57554;51.546;6.776;2022-08-06T03:59:50;6.30;;;1.98;;
70183;SDS011;57554;51.546;6.776;2022-08-06T04:02:18;5.85;;;2.08;;
70183;SDS011;57554;51.546;6.776;2022-08-06T04:04:45;5.78;;;2.33;;
70183;SDS011;57554;51.546;6.776;2022-08-06T04:07:12;5.35;;;1.98;;
70183;SDS011;57554;51.546;6.776;2022-08-06T04:09:39;5.88;;;2.00;;
70183;SDS011;57554;51.546;6.776;2022-08-06T04:12:07;7.72;;;2.10;;
70183;SDS011;57554;51.546;6.776;2022-08-06T04:14:33;6.68;;;2.20;;
70183;SDS011;57554;51.546;6.776;2022-08-06T04:17:00;6.80;;;1.90;;
70183;SDS011;57554;51.546;6.776;2022-08-06T04:19:28;7.13;;;2.13;;
70183;SDS011;57554;51.546;6.776;2022-08-06T04:21:55;6.60;;;2.15;;
70183;SDS011;57554;51.546;6.776;2022-08-06T04:24:21;6.75;;;2.25;;
70183;SDS011;57554;51.546;6.776;2022-08-06T04:26:47;6.88;;;2.17;;
70183;SDS011;57554;51.546;6.776;2022-08-06T04:29:17;6.00;;;2.10;;
70183;SDS011;57554;51.546;6.776;2022-08-06T04:31:45;6.45;;;2.00;;
70183;SDS011;57554;51.546;6.776;2022-08-06T04:34:13;5.15;;;2.28;;
70183;SDS011;57554;51.546;6.776;2022-08-06T04:36:47;6.55;;;2.25;;
70183;SDS011;57554;51.546;6.776;2022-08-06T04:39:14;7.22;;;2.47;;
70183;SDS011;57554;51.546;6.776;2022-08-06T04:41:41;4.82;;;2.03;;
70183;SDS011;57554;51.546;6.776;2022-08-06T04:44:07;5.85;;;2.15;;
70183;SDS011;57554;51.546;6.776;2022-08-06T04:46:32;7.65;;;2.60;;
70183;SDS011;57554;51.546;6.776;2022-08-06T04:48:59;4.53;;;2.20;;
70183;SDS011;57554;51.546;6.776;2022-08-06T04:51:25;5.13;;;1.80;;
70183;SDS011;57554;51.546;6.776;2022-08-06T04:53:50;6.32;;;2.13;;
70183;SDS011;57554;51.546;6.776;2022-08-06T04:56:16;6.60;;;2.40;;
70183;SDS011;57554;51.546;6.776;2022-08-06T04:58:41;4.25;;;1.83;;
70183;SDS011;57554;51.546;6.776;2022-08-06T05:01:07;5.32;;;2.13;;
70183;SDS011;57554;51.546;6.776;2022-08-06T05:03:33;5.65;;;2.00;;
70183;SDS011;57554;51.546;6.776;2022-08-06T05:06:00;6.05;;;2.20;;
70183;SDS011;57554;51.546;6.776;2022-08-06T05:08:31;5.50;;;2.13;;
70183;SDS011;57554;51.546;6.776;2022-08-06T05:11:01;7.25;;;2.45;;
70183;SDS011;57554;51.546;6.776;2022-08-06T05:13:33;6.20;;;2.17;;
70183;SDS011;57554;51.546;6.776;2022-08-06T05:16:03;5.68;;;2.47;;
70183;SDS011;57554;51.546;6.776;2022-08-06T05:18:43;5.13;;;2.30;;
70183;SDS011;57554;51.546;6.776;2022-08-06T05:21:12;5.78;;;2.10;;
70183;SDS011;57554;51.546;6.776;2022-08-06T05:23:47;6.15;;;2.70;;
70183;SDS011;57554;51.546;6.776;2022-08-06T05:26:15;5.13;;;2.35;;
70183;SDS011;57554;51.546;6.776;2022-08-06T05:28:41;6.10;;;2.60;;
70183;SDS011;57554;51.546;6.776;2022-08-06T05:31:07;7.72;;;3.30;;
70183;SDS011;57554;51.546;6.776;2022-08-06T05:33:34;5.78;;;2.17;;
70183;SDS011;57554;51.546;6.776;2022-08-06T05:36:02;8.85;;;3.30;;
70183;SDS011;57554;51.546;6.776;2022-08-06T05:38:30;7.68;;;3.70;;
70183;SDS011;57554;51.546;6.776;2022-08-06T05:40:57;11.85;;;3.65;;
70183;SDS011;57554;51.546;6.776;2022-08-06T05:43:24;9.10;;;3.58;;
70183;SDS011;57554;51.546;6.776;2022-08-06T05:45:51;8.40;;;3.88;;
70183;SDS011;57554;51.546;6.776;2022-08-06T05:48:20;9.00;;;3.53;;
70183;SDS011;57554;51.546;6.776;2022-08-06T05:50:48;8.60;;;3.72;;
70183;SDS011;57554;51.546;6.776;2022-08-06T05:53:28;10.18;;;3.58;;
70183;SDS011;57554;51.546;6.776;2022-08-06T05:56:02;7.38;;;3.60;;
70183;SDS011;57554;51.546;6.776;2022-08-06T06:01:16;11.25;;;3.80;;
70183;SDS011;57554;51.546;6.776;2022-08-06T06:03:42;9.48;;;3.28;;
70183;SDS011;57554;51.546;6.776;2022-08-06T06:06:08;10.90;;;3.95;;
70183;SDS011;57554;51.546;6.776;2022-08-06T06:08:36;8.45;;;3.83;;
70183;SDS011;57554;51.546;6.776;2022-08-06T06:11:02;10.25;;;4.03;;
70183;SDS011;57554;51.546;6.776;2022-08-06T06:13:29;6.95;;;3.40;;
70183;SDS011;57554;51.546;6.776;2022-08-06T06:15:57;10.05;;;3.22;;
70183;SDS011;57554;51.546;6.776;2022-08-06T06:27:02;7.18;;;3.20;;
70183;SDS011;57554;51.546;6.776;2022-08-06T06:35:39;6.13;;;2.90;;
70183;SDS011;57554;51.546;6.776;2022-08-06T06:46:29;8.23;;;2.58;;
70183;SDS011;57554;51.546;6.776;2022-08-06T06:49:06;6.20;;;2.15;;
70183;SDS011;57554;51.546;6.776;2022-08-06T06:51:46;6.38;;;1.83;;
70183;SDS011;57554;51.546;6.776;2022-08-06T06:54:19;5.93;;;1.48;;
70183;SDS011;57554;51.546;6.776;2022-08-06T06:56:49;7.45;;;1.95;;
70183;SDS011;57554;51.546;6.776;2022-08-06T06:59:19;6.45;;;1.80;;
70183;SDS011;57554;51.546;6.776;2022-08-06T07:01:48;5.45;;;1.25;;
70183;SDS011;57554;51.546;6.776;2022-08-06T07:04:16;5.10;;;1.23;;
70183;SDS011;57554;51.546;6.776;2022-08-06T07:06:43;4.95;;;1.17;;
70183;SDS011;57554;51.546;6.776;2022-08-06T07:09:16;5.65;;;0.80;;
70183;SDS011;57554;51.546;6.776;2022-08-06T07:11:43;5.30;;;1.05;;
70183;SDS011;57554;51.546;6.776;2022-08-06T07:14:10;4.57;;;1.00;;
70183;SDS011;57554;51.546;6.776;2022-08-06T07:16:39;4.70;;;0.90;;
70183;SDS011;57554;51.546;6.776;2022-08-06T07:19:07;6.85;;;0.90;;
70183;SDS011;57554;51.546;6.776;2022-08-06T07:21:34;4.65;;;0.80;;
70183;SDS011;57554;51.546;6.776;2022-08-06T07:24:02;3.50;;;0.65;;
70183;SDS011;57554;51.546;6.776;2022-08-06T07:26:28;3.20;;;0.60;;
70183;SDS011;57554;51.546;6.776;2022-08-06T07:28:54;3.30;;;0.47;;
70183;SDS011;57554;51.546;6.776;2022-08-06T07:31:25;4.25;;;0.60;;
70183;SDS011;57554;51.546;6.776;2022-08-06T07:33:51;3.88;;;0.82;;
70183;SDS011;57554;51.546;6.776;2022-08-06T07:36:18;3.58;;;0.60;;
70183;SDS011;57554;51.546;6.776;2022-08-06T07:38:47;3.70;;;0.60;;
70183;SDS011;57554;51.546;6.776;2022-08-06T07:41:14;4.22;;;0.50;;
70183;SDS011;57554;51.546;6.776;2022-08-06T07:43:54;4.00;;;0.50;;
70183;SDS011;57554;51.546;6.776;2022-08-06T07:46:24;5.15;;;0.60;;
70183;SDS011;57554;51.546;6.776;2022-08-06T07:48:54;6.07;;;0.60;;
70183;SDS011;57554;51.546;6.776;2022-08-06T07:51:23;6.55;;;0.90;;
70183;SDS011;57554;51.546;6.776;2022-08-06T07:53:51;2.53;;;0.52;;
70183;SDS011;57554;51.546;6.776;2022-08-06T07:56:18;3.03;;;0.50;;
70183;SDS011;57554;51.546;6.776;2022-08-06T07:58:44;3.28;;;0.65;;
70183;SDS011;57554;51.546;6.776;2022-08-06T08:01:10;3.45;;;0.47;;
70183;SDS011;57554;51.546;6.776;2022-08-06T08:03:36;5.47;;;0.77;;
70183;SDS011;57554;51.546;6.776;2022-08-06T08:06:21;1.95;;;0.52;;
70183;SDS011;57554;51.546;6.776;2022-08-06T08:08:59;3.30;;;0.60;;
70183;SDS011;57554;51.546;6.776;2022-08-06T08:11:31;2.63;;;0.50;;
70183;SDS011;57554;51.546;6.776;2022-08-06T08:13:58;2.13;;;0.40;;
70183;SDS011;57554;51.546;6.776;2022-08-06T08:16:27;4.47;;;0.47;;
70183;SDS011;57554;51.546;6.776;2022-08-06T08:18:53;4.40;;;0.47;;
70183;SDS011;57554;51.546;6.776;2022-08-06T08:21:19;2.40;;;0.40;;
70183;SDS011;57554;51.546;6.776;2022-08-06T08:23:46;3.15;;;0.50;;
70183;SDS011;57554;51.546;6.776;2022-08-06T08:26:14;5.30;;;0.60;;
70183;SDS011;57554;51.546;6.776;2022-08-06T08:28:39;3.58;;;0.43;;
70183;SDS011;57554;51.546;6.776;2022-08-06T08:31:05;1.98;;;0.40;;
70183;SDS011;57554;51.546;6.776;2022-08-06T08:33:32;3.08;;;0.65;;
70183;SDS011;57554;51.546;6.776;2022-08-06T08:35:58;2.42;;;0.50;;
70183;SDS011;57554;51.546;6.776;2022-08-06T08:38:26;3.58;;;0.50;;
70183;SDS011;57554;51.546;6.776;2022-08-06T08:40:55;3.60;;;0.52;;
70183;SDS011;57554;51.546;6.776;2022-08-06T08:43:25;2.50;;;0.60;;
70183;SDS011;57554;51.546;6.776;2022-08-06T08:45:54;5.57;;;0.55;;
70183;SDS011;57554;51.546;6.776;2022-08-06T08:48:23;4.50;;;0.57;;
70183;SDS011;57554;51.546;6.776;2022-08-06T08:50:49;2.10;;;0.38;;
70183;SDS011;57554;51.546;6.776;2022-08-06T08:53:19;2.42;;;0.40;;
70183;SDS011;57554;51.546;6.776;2022-08-06T08:55:50;3.90;;;0.60;;
70183;SDS011;57554;51.546;6.776;2022-08-06T08:58:16;4.43;;;0.50;;
70183;SDS011;57554;51.546;6.776;2022-08-06T09:00:42;2.33;;;0.40;;
70183;SDS011;57554;51.546;6.776;2022-08-06T09:03:07;2.58;;;0.40;;
70183;SDS011;57554;51.546;6.776;2022-08-06T09:05:34;2.08;;;0.40;;
70183;SDS011;57554;51.546;6.776;2022-08-06T09:08:01;2.72;;;0.50;;
70183;SDS011;57554;51.546;6.776;2022-08-06T09:10:28;2.25;;;0.40;;
70183;SDS011;57554;51.546;6.776;2022-08-06T09:12:54;3.30;;;0.57;;
70183;SDS011;57554;51.546;6.776;2022-08-06T09:15:20;2.17;;;0.40;;
70183;SDS011;57554;51.546;6.776;2022-08-06T09:17:48;2.95;;;0.55;;
70183;SDS011;57554;51.546;6.776;2022-08-06T09:20:14;2.50;;;0.50;;
70183;SDS011;57554;51.546;6.776;2022-08-06T09:22:40;2.47;;;0.40;;
70183;SDS011;57554;51.546;6.776;2022-08-06T09:25:33;3.10;;;0.40;;
70183;SDS011;57554;51.546;6.776;2022-08-06T09:28:02;2.22;;;0.43;;
70183;SDS011;57554;51.546;6.776;2022-08-06T09:30:33;2.20;;;0.47;;
70183;SDS011;57554;51.546;6.776;2022-08-06T09:32:58;2.90;;;0.50;;
70183;SDS011;57554;51.546;6.776;2022-08-06T09:35:25;3.95;;;0.60;;
70183;SDS011;57554;51.546;6.776;2022-08-06T09:38:00;2.42;;;0.40;;
70183;SDS011;57554;51.546;6.776;2022-08-06T09:40:30;1.40;;;0.30;;
70183;SDS011;57554;51.546;6.776;2022-08-06T09:42:56;1.90;;;0.32;;
70183;SDS011;57554;51.546;6.776;2022-08-06T09:45:23;2.85;;;0.40;;
70183;SDS011;57554;51.546;6.776;2022-08-06T09:48:06;1.33;;;0.20;;
70183;SDS011;57554;51.546;6.776;2022-08-06T09:53:01;1.80;;;0.38;;
70183;SDS011;57554;51.546;6.776;2022-08-06T09:55:28;4.10;;;0.60;;
70183;SDS011;57554;51.546;6.776;2022-08-06T09:57:54;2.50;;;0.47;;
70183;SDS011;57554;51.546;6.776;2022-08-06T10:00:28;3.60;;;0.40;;
70183;SDS011;57554;51.546;6.776;2022-08-06T10:03:00;1.60;;;0.35;;
70183;SDS011;57554;51.546;6.776;2022-08-06T10:05:33;2.35;;;0.40;;
70183;SDS011;57554;51.546;6.776;2022-08-06T10:10:41;4.05;;;0.55;;
70183;SDS011;57554;51.546;6.776;2022-08-06T10:13:13;2.30;;;0.40;;
70183;SDS011;57554;51.546;6.776;2022-08-06T10:15:43;3.38;;;0.40;;
70183;SDS011;57554;51.546;6.776;2022-08-06T10:21:01;1.60;;;0.40;;
70183;SDS011;57554;51.546;6.776;2022-08-06T10:23:32;2.92;;;0.50;;
70183;SDS011;57554;51.546;6.776;2022-08-06T10:26:00;1.83;;;0.50;;
70183;SDS011;57554;51.546;6.776;2022-08-06T10:28:27;3.92;;;0.40;;
70183;SDS011;57554;51.546;6.776;2022-08-06T10:30:54;2.20;;;0.50;;
70183;SDS011;57554;51.546;6.776;2022-08-06T10:33:21;3.88;;;0.57;;
70183;SDS011;57554;51.546;6.776;2022-08-06T10:35:51;3.95;;;0.50;;
70183;SDS011;57554;51.546;6.776;2022-08-06T10:38:20;3.53;;;0.60;;
70183;SDS011;57554;51.546;6.776;2022-08-06T10:40:51;4.07;;;0.70;;
70183;SDS011;57554;51.546;6.776;2022-08-06T10:43:18;4.13;;;0.55;;
70183;SDS011;57554;51.546;6.776;2022-08-06T10:45:44;2.42;;;0.47;;
70183;SDS011;57554;51.546;6.776;2022-08-06T10:48:10;1.92;;;0.50;;
70183;SDS011;57554;51.546;6.776;2022-08-06T10:50:37;3.13;;;0.50;;
70183;SDS011;57554;51.546;6.776;2022-08-06T10:53:04;3.55;;;0.55;;
70183;SDS011;57554;51.546;6.776;2022-08-06T10:55:30;2.20;;;0.40;;
70183;SDS011;57554;51.546;6.776;2022-08-06T10:57:56;4.22;;;0.75;;
70183;SDS011;57554;51.546;6.776;2022-08-06T11:00:23;4.57;;;0.60;;
70183;SDS011;57554;51.546;6.776;2022-08-06T11:05:33;3.75;;;0.60;;
70183;SDS011;57554;51.546;6.776;2022-08-06T11:16:21;3.80;;;0.50;;
70183;SDS011;57554;51.546;6.776;2022-08-06T11:21:46;1.95;;;0.40;;
70183;SDS011;57554;51.546;6.776;2022-08-06T11:24:14;3.97;;;0.80;;
70183;SDS011;57554;51.546;6.776;2022-08-06T11:26:41;1.73;;;0.40;;
70183;SDS011;57554;51.546;6.776;2022-08-06T11:29:09;2.72;;;0.52;;
70183;SDS011;57554;51.546;6.776;2022-08-06T11:31:38;3.15;;;0.40;;
70183;SDS011;57554;51.546;6.776;2022-08-06T11:34:11;2.45;;;0.40;;
70183;SDS011;57554;51.546;6.776;2022-08-06T11:36:42;1.65;;;0.40;;
70183;SDS011;57554;51.546;6.776;2022-08-06T11:39:09;2.17;;;0.40;;
70183;SDS011;57554;51.546;6.776;2022-08-06T11:41:43;1.98;;;0.50;;
70183;SDS011;57554;51.546;6.776;2022-08-06T11:44:11;1.60;;;0.30;;
70183;SDS011;57554;51.546;6.776;2022-08-06T11:46:40;2.70;;;0.43;;
70183;SDS011;57554;51.546;6.776;2022-08-06T11:49:14;2.67;;;0.40;;
70183;SDS011;57554;51.546;6.776;2022-08-06T11:54:25;2.95;;;0.60;;
70183;SDS011;57554;51.546;6.776;2022-08-06T11:59:36;2.83;;;0.50;;
70183;SDS011;57554;51.546;6.776;2022-08-06T12:02:08;3.08;;;0.50;;
70183;SDS011;57554;51.546;6.776;2022-08-06T12:12:34;2.13;;;0.60;;
70183;SDS011;57554;51.546;6.776;2022-08-06T12:17:41;2.53;;;0.50;;
70183;SDS011;57554;51.546;6.776;2022-08-06T12:20:34;6.07;;;0.50;;
70183;SDS011;57554;51.546;6.776;2022-08-06T12:23:08;3.90;;;0.70;;
70183;SDS011;57554;51.546;6.776;2022-08-06T12:25:34;2.53;;;0.40;;
70183;SDS011;57554;51.546;6.776;2022-08-06T12:28:05;3.30;;;0.50;;
70183;SDS011;57554;51.546;6.776;2022-08-06T12:30:45;4.43;;;0.60;;
70183;SDS011;57554;51.546;6.776;2022-08-06T12:33:19;2.67;;;0.40;;
70183;SDS011;57554;51.546;6.776;2022-08-06T12:35:49;4.03;;;0.50;;
70183;SDS011;57554;51.546;6.776;2022-08-06T12:38:23;2.80;;;0.43;;
70183;SDS011;57554;51.546;6.776;2022-08-06T12:40:55;4.07;;;0.65;;
70183;SDS011;57554;51.546;6.776;2022-08-06T12:43:22;2.53;;;0.60;;
70183;SDS011;57554;51.546;6.776;2022-08-06T12:45:55;2.05;;;0.45;;
70183;SDS011;57554;51.546;6.776;2022-08-06T12:48:21;1.98;;;0.57;;
70183;SDS011;57554;51.546;6.776;2022-08-06T12:50:47;2.08;;;0.50;;
70183;SDS011;57554;51.546;6.776;2022-08-06T12:53:16;4.00;;;0.68;;
70183;SDS011;57554;51.546;6.776;2022-08-06T12:58:11;2.22;;;0.40;;
70183;SDS011;57554;51.546;6.776;2022-08-06T13:00:39;6.95;;;0.68;;
70183;SDS011;57554;51.546;6.776;2022-08-06T13:03:07;3.55;;;0.55;;
70183;SDS011;57554;51.546;6.776;2022-08-06T13:05:34;4.25;;;0.68;;
70183;SDS011;57554;51.546;6.776;2022-08-06T13:08:02;3.60;;;0.60;;
70183;SDS011;57554;51.546;6.776;2022-08-06T13:10:28;2.22;;;0.50;;
70183;SDS011;57554;51.546;6.776;2022-08-06T13:13:03;3.05;;;0.50;;
70183;SDS011;57554;51.546;6.776;2022-08-06T13:15:33;4.13;;;0.80;;
70183;SDS011;57554;51.546;6.776;2022-08-06T13:18:12;2.50;;;0.35;;
70183;SDS011;57554;51.546;6.776;2022-08-06T13:23:08;1.98;;;0.52;;
70183;SDS011;57554;51.546;6.776;2022-08-06T13:28:16;2.47;;;0.40;;
70183;SDS011;57554;51.546;6.776;2022-08-06T13:30:44;3.42;;;0.68;;
70183;SDS011;57554;51.546;6.776;2022-08-06T13:33:14;1.73;;;0.50;;
70183;SDS011;57554;51.546;6.776;2022-08-06T13:35:42;2.03;;;0.40;;
70183;SDS011;57554;51.546;6.776;2022-08-06T13:38:09;2.55;;;0.40;;
70183;SDS011;57554;51.546;6.776;2022-08-06T13:40:35;2.85;;;0.57;;
70183;SDS011;57554;51.546;6.776;2022-08-06T13:43:09;2.63;;;0.50;;
70183;SDS011;57554;51.546;6.776;2022-08-06T13:45:35;3.40;;;0.50;;
70183;SDS011;57554;51.546;6.776;2022-08-06T13:48:04;2.58;;;0.40;;
70183;SDS011;57554;51.546;6.776;2022-08-06T13:50:35;2.70;;;0.50;;
70183;SDS011;57554;51.546;6.776;2022-08-06T13:53:02;3.30;;;0.85;;
70183;SDS011;57554;51.546;6.776;2022-08-06T13:55:29;2.88;;;0.50;;
70183;SDS011;57554;51.546;6.776;2022-08-06T13:57:55;2.80;;;0.55;;
70183;SDS011;57554;51.546;6.776;2022-08-06T14:00:22;3.45;;;0.40;;
70183;SDS011;57554;51.546;6.776;2022-08-06T14:02:49;2.90;;;0.50;;
70183;SDS011;57554;51.546;6.776;2022-08-06T14:05:15;1.17;;;0.40;;
70183;SDS011;57554;51.546;6.776;2022-08-06T14:07:41;1.40;;;0.40;;
70183;SDS011;57554;51.546;6.776;2022-08-06T14:10:07;2.67;;;0.50;;
70183;SDS011;57554;51.546;6.776;2022-08-06T14:12:33;4.07;;;0.65;;
70183;SDS011;57554;51.546;6.776;2022-08-06T14:14:59;2.55;;;0.50;;
70183;SDS011;57554;51.546;6.776;2022-08-06T14:17:25;3.20;;;0.40;;
70183;SDS011;57554;51.546;6.776;2022-08-06T14:19:51;3.97;;;0.65;;
70183;SDS011;57554;51.546;6.776;2022-08-06T14:22:17;2.28;;;0.50;;
70183;SDS011;57554;51.546;6.776;2022-08-06T14:24:43;4.43;;;0.70;;
70183;SDS011;57554;51.546;6.776;2022-08-06T14:27:09;3.53;;;0.40;;
70183;SDS011;57554;51.546;6.776;2022-08-06T14:29:36;2.25;;;0.65;;
70183;SDS011;57554;51.546;6.776;2022-08-06T14:32:02;3.80;;;0.60;;
70183;SDS011;57554;51.546;6.776;2022-08-06T14:34:29;2.15;;;0.50;;
70183;SDS011;57554;51.546;6.776;2022-08-06T14:36:55;3.45;;;0.60;;
70183;SDS011;57554;51.546;6.776;2022-08-06T14:39:21;3.20;;;0.50;;
70183;SDS011;57554;51.546;6.776;2022-08-06T14:41:47;3.28;;;0.50;;
70183;SDS011;57554;51.546;6.776;2022-08-06T14:44:31;2.15;;;0.43;;
70183;SDS011;57554;51.546;6.776;2022-08-06T14:47:15;2.00;;;0.60;;
70183;SDS011;57554;51.546;6.776;2022-08-06T14:49:41;2.72;;;0.60;;
70183;SDS011;57554;51.546;6.776;2022-08-06T14:52:06;3.35;;;0.50;;
70183;SDS011;57554;51.546;6.776;2022-08-06T14:54:33;3.75;;;0.50;;
70183;SDS011;57554;51.546;6.776;2022-08-06T14:57:00;3.00;;;0.50;;
70183;SDS011;57554;51.546;6.776;2022-08-06T14:59:27;1.75;;;0.40;;
70183;SDS011;57554;51.546;6.776;2022-08-06T15:01:53;2.47;;;0.40;;
70183;SDS011;57554;51.546;6.776;2022-08-06T15:04:19;4.03;;;0.60;;
70183;SDS011;57554;51.546;6.776;2022-08-06T15:06:45;4.57;;;0.50;;
70183;SDS011;57554;51.546;6.776;2022-08-06T15:09:10;3.38;;;0.60;;
70183;SDS011;57554;51.546;6.776;2022-08-06T15:11:36;4.53;;;0.60;;
70183;SDS011;57554;51.546;6.776;2022-08-06T15:14:02;2.08;;;0.45;;
70183;SDS011;57554;51.546;6.776;2022-08-06T15:16:28;2.42;;;0.52;;
70183;SDS011;57554;51.546;6.776;2022-08-06T15:18:54;2.55;;;0.50;;
70183;SDS011;57554;51.546;6.776;2022-08-06T15:21:20;1.67;;;0.50;;
70183;SDS011;57554;51.546;6.776;2022-08-06T15:23:46;2.70;;;0.50;;
70183;SDS011;57554;51.546;6.776;2022-08-06T15:26:12;2.85;;;0.50;;
70183;SDS011;57554;51.546;6.776;2022-08-06T15:28:38;2.53;;;0.43;;
70183;SDS011;57554;51.546;6.776;2022-08-06T15:31:04;4.63;;;0.70;;
70183;SDS011;57554;51.546;6.776;2022-08-06T15:33:29;1.98;;;0.50;;
70183;SDS011;57554;51.546;6.776;2022-08-06T15:35:57;4.28;;;0.60;;
70183;SDS011;57554;51.546;6.776;2022-08-06T15:38:22;3.35;;;0.73;;
70183;SDS011;57554;51.546;6.776;2022-08-06T15:40:48;5.22;;;0.75;;
70183;SDS011;57554;51.546;6.776;2022-08-06T15:43:14;3.08;;;0.60;;
70183;SDS011;57554;51.546;6.776;2022-08-06T15:45:40;2.65;;;0.52;;
70183;SDS011;57554;51.546;6.776;2022-08-06T15:48:05;3.58;;;0.70;;
70183;SDS011;57554;51.546;6.776;2022-08-06T15:50:31;4.55;;;0.77;;
70183;SDS011;57554;51.546;6.776;2022-08-06T15:52:57;3.50;;;0.65;;
70183;SDS011;57554;51.546;6.776;2022-08-06T15:55:22;3.38;;;0.52;;
70183;SDS011;57554;51.546;6.776;2022-08-06T15:57:48;1.77;;;0.40;;
70183;SDS011;57554;51.546;6.776;2022-08-06T16:00:14;4.55;;;0.60;;
70183;SDS011;57554;51.546;6.776;2022-08-06T16:02:40;4.78;;;0.60;;
70183;SDS011;57554;51.546;6.776;2022-08-06T16:05:06;3.72;;;0.40;;
70183;SDS011;57554;51.546;6.776;2022-08-06T16:07:32;2.47;;;0.47;;
70183;SDS011;57554;51.546;6.776;2022-08-06T16:09:58;2.33;;;0.50;;
70183;SDS011;57554;51.546;6.776;2022-08-06T16:12:24;3.50;;;0.55;;
70183;SDS011;57554;51.546;6.776;2022-08-06T16:14:50;2.92;;;0.60;;
70183;SDS011;57554;51.546;6.776;2022-08-06T16:17:16;3.38;;;0.73;;
70183;SDS011;57554;51.546;6.776;2022-08-06T16:19:42;2.47;;;0.60;;
70183;SDS011;57554;51.546;6.776;2022-08-06T16:22:07;4.57;;;0.63;;
70183;SDS011;57554;51.546;6.776;2022-08-06T16:24:33;3.70;;;0.55;;